Flight Track Log - Related Links

Times and Time Zones

All times are in EDT time to prevent confusion due to time zone crossing. See the DAL908 flight status page for this flight to view local times or setup timezone preferences in your user account.

Time Position Orientation Groundspeed Altitude Reporting Facility
EDT Latitude Longitude Course Direction KTS MPH feet Rate Location/Type
Thu 08:18:22 AM 26.0747 -80.1414 82° East 167 192 900  Level Miami Center
Thu 08:19:42 AM 26.0850 -80.0606 North 239 275 3,700 1,822 Climbing Miami Center
Thu 08:20:37 AM 26.1456 -80.0553 324° Northwest 280 322 5,000 818 Climbing Miami Center
Thu 08:21:32 AM 26.2053 -80.1033 325° Northwest 288 331 5,200 891 Climbing Miami Center
Thu 08:22:18 AM 26.2606 -80.1464 321° Northwest 290 334 6,500 3,113 Climbing Miami Center
Thu 08:23:18 AM 26.3178 -80.1989 323° Northwest 311 358 10,700 2,750 Climbing Miami Center
Thu 08:24:18 AM 26.3833 -80.2542 322° Northwest 320 368 12,000 2,250 Climbing Miami Center
Thu 08:25:18 AM 26.4775 -80.3358 324° Northwest 372 428 15,200 2,900 Climbing Miami Center
Thu 08:26:18 AM 26.5575 -80.4008 337° Northwest 389 448 17,800 2,650 Climbing Miami Center
Thu 08:27:18 AM 26.6689 -80.4531 345° North 395 455 20,500 2,200 Climbing Miami Center
Thu 08:28:18 AM 26.7706 -80.4839 347° North 409 471 22,200 1,800 Climbing Miami Center
Thu 08:29:18 AM 26.8889 -80.5156 344° North 428 493 24,100 2,100 Climbing Miami Center
Thu 08:30:18 AM 27.0089 -80.5544 345° North 440 506 26,400 2,350 Climbing Miami Center
Thu 08:31:18 AM 27.1333 -80.5911 345° North 428 493 28,800 2,150 Climbing Miami Center
Thu 08:32:18 AM 27.2453 -80.6250 341° North 421 484 30,700 1,100 Climbing Miami Center
Thu 08:33:18 AM 27.3525 -80.6658 337° Northwest 411 473 31,000 750 Climbing Miami Center
Thu 08:34:18 AM 27.4433 -80.7086 337° Northwest 401 461 32,200 850 Climbing Miami Center
Thu 08:35:18 AM 27.5486 -80.7589 341° North 406 467 32,700 1,150 Climbing Miami Center
Thu 08:36:18 AM 27.6600 -80.8028 340° North 413 475 34,500 1,300 Climbing Miami Center
Thu 08:37:18 AM 27.7672 -80.8461 340° North 413 475 35,300 850 Climbing Miami Center
Thu 08:38:18 AM 27.8767 -80.8922 339° North 408 470 36,200 850 Climbing Miami Center
Thu 08:39:18 AM 27.9778 -80.9358 340° North 408 470 37,000 400 Climbing Miami Center
Thu 08:40:18 AM 28.0831 -80.9797 340° North 408 470 37,000  Level Miami Center
Thu 08:41:18 AM 28.1881 -81.0236 339° North 408 470 37,000  Level Miami Center
Thu 08:42:18 AM 28.2972 -81.0700 339° North 408 470 37,000  Level Miami Center
Thu 08:43:18 AM 28.4003 -81.1139 340° North 408 470 37,000  Level Miami Center
Thu 08:44:18 AM 28.5033 -81.1558 339° North 408 470 37,000  Level Miami Center
Thu 08:45:18 AM 28.6106 -81.2025 340° North 408 470 37,000  Level Miami Center
Thu 08:46:45 AM 28.7719 -81.2678 339° North 412 474 37,000  Level Jacksonville Center
Thu 08:47:45 AM 28.8789 -81.3158 336° Northwest 412 474 37,000  Level Jacksonville Center
Thu 08:48:45 AM 28.9797 -81.3664 340° North 412 474 37,000  Level Jacksonville Center
Thu 08:49:45 AM 29.0847 -81.4100 340° North 407 468 37,000  Level Jacksonville Center
Thu 08:50:45 AM 29.1894 -81.4536 340° North 402 463 37,000  Level Jacksonville Center
Thu 08:51:45 AM 29.2964 -81.4972 339° North 402 463 37,000  Level Jacksonville Center
Thu 08:52:45 AM 29.4033 -81.5433 340° North 402 463 37,000  Level Jacksonville Center
Thu 08:53:45 AM 29.5103 -81.5872 339° North 402 463 37,000  Level Jacksonville Center
Thu 08:54:45 AM 29.6153 -81.6336 339° North 407 468 37,000  Level Jacksonville Center
Thu 08:55:45 AM 29.7200 -81.6800 340° North 407 468 37,000  Level Jacksonville Center
Thu 08:56:45 AM 29.8247 -81.7242 339° North 407 468 37,000  Level Jacksonville Center
Thu 08:57:45 AM 29.9297 -81.7708 340° North 401 461 37,000  Level Jacksonville Center
Thu 08:58:45 AM 30.0239 -81.8106 340° North 401 461 37,000  Level Jacksonville Center
Thu 08:59:46 AM 30.1286 -81.8550 342° North 401 461 37,000  Level Jacksonville Center
Thu 09:00:45 AM 30.2356 -81.8947 343° North 395 455 37,000  Level Jacksonville Center
Thu 09:01:45 AM 30.3444 -81.9322 343° North 395 455 37,000  Level Jacksonville Center
Thu 09:02:45 AM 30.4511 -81.9697 343° North 395 455 37,000  Level Jacksonville Center
Thu 09:03:46 AM 30.5683 -82.0119 344° North 401 461 37,000  Level Jacksonville Center
Thu 09:04:46 AM 30.6750 -82.0472 344° North 401 461 37,000  Level Jacksonville Center
Thu 09:05:46 AM 30.7817 -82.0825 344° North 401 461 37,000  Level Jacksonville Center
Thu 09:06:46 AM 30.8883 -82.1178 344° North 401 461 37,000  Level Jacksonville Center
Thu 09:07:46 AM 30.9972 -82.1533 344° North 401 461 37,000  Level Jacksonville Center
Thu 09:08:46 AM 31.1061 -82.1889 344° North 401 461 37,000  Level Jacksonville Center
Thu 09:09:46 AM 31.2106 -82.2244 342° North 401 461 37,000  Level Jacksonville Center
Thu 09:10:46 AM 31.3172 -82.2653 345° North 401 461 37,000  Level Jacksonville Center
Thu 09:11:46 AM 31.4239 -82.2986 344° North 395 455 37,000  Level Jacksonville Center
Thu 09:13:56 AM 31.6581 -82.3775 346° North 404 465 37,000  Level Atlanta Center
Thu 09:14:56 AM 31.7567 -82.4072 344° North 409 471 37,000  Level Atlanta Center
Thu 09:15:56 AM 31.8636 -82.4444 343° North 404 465 37,000  Level Atlanta Center
Thu 09:16:56 AM 31.9664 -82.4819 345° North 387 445 37,000  Level Atlanta Center
Thu 09:17:56 AM 32.0775 -82.5167 343° North 387 445 37,000  Level Atlanta Center
Thu 09:18:56 AM 32.1864 -82.5567 342° North 387 445 37,000  Level Atlanta Center
Thu 09:19:56 AM 32.2892 -82.5967 345° North 392 451 37,000  Level Atlanta Center
Thu 09:20:56 AM 32.4003 -82.6317 343° North 392 451 37,000  Level Atlanta Center
Thu 09:21:56 AM 32.5072 -82.6694 345° North 397 457 37,000  Level Atlanta Center
Thu 09:22:56 AM 32.6119 -82.7022 342° North 397 457 37,000  Level Atlanta Center
Thu 09:23:56 AM 32.7292 -82.7475 344° North 402 463 37,000 -149 Level Atlanta Center
Thu 09:24:57 AM 32.8381 -82.7853 344° North 402 463 36,700 -500 Descending Atlanta Center
Thu 09:25:56 AM 32.9450 -82.8208 344° North 402 463 36,000 -350 Descending Atlanta Center
Thu 09:26:57 AM 33.0517 -82.8567 342° North 402 463 36,000  Level Atlanta Center
Thu 09:27:56 AM 33.1586 -82.8975 344° North 402 463 36,000  Level Atlanta Center
Thu 09:28:56 AM 33.2675 -82.9358 345° North 402 463 36,000  Level Atlanta Center
Thu 09:29:57 AM 33.3783 -82.9717 344° North 401 461 36,000  Level Atlanta Center
Thu 09:30:56 AM 33.4872 -83.0100 344° North 401 461 36,000  Level Atlanta Center
Thu 09:31:56 AM 33.5961 -83.0486 343° North 401 461 36,000  Level Atlanta Center
Thu 09:32:57 AM 33.7069 -83.0900 343° North 401 461 36,000  Level Atlanta Center
Thu 09:33:56 AM 33.8139 -83.1286 344° North 400 460 36,000  Level Atlanta Center
Thu 09:34:56 AM 33.9225 -83.1650 343° North 400 460 36,000  Level Atlanta Center
Thu 09:35:56 AM 34.0211 -83.2017 344° North 406 467 36,000  Level Atlanta Center
Thu 09:36:57 AM 34.1297 -83.2383 344° North 400 460 36,000  Level Atlanta Center
Thu 09:37:57 AM 34.2406 -83.2775 342° North 405 466 36,000  Level Atlanta Center
Thu 09:38:56 AM 34.3472 -83.3192 339° North 400 460 36,000  Level Atlanta Center
Thu 09:39:57 AM 34.4519 -83.3686 330° Northwest 400 460 36,000  Level Atlanta Center
Thu 09:40:56 AM 34.5483 -83.4361 330° Northwest 394 453 36,000  Level Atlanta Center
Thu 09:41:56 AM 34.6467 -83.5061 328° Northwest 410 472 36,000  Level Atlanta Center
Thu 09:42:56 AM 34.7431 -83.5786 328° Northwest 410 472 36,000  Level Atlanta Center
Thu 09:43:56 AM 34.8433 -83.6542 328° Northwest 410 472 36,000  Level Atlanta Center
Thu 09:44:57 AM 34.9458 -83.7322 330° Northwest 410 472 36,000  Level Atlanta Center
Thu 09:45:56 AM 35.0442 -83.8028 328° Northwest 410 472 36,000  Level Atlanta Center
Thu 09:46:56 AM 35.1403 -83.8761 335° Northwest 410 472 36,000  Level Atlanta Center
Thu 09:47:56 AM 35.2447 -83.9344 North 410 472 36,000  Level Atlanta Center
Thu 09:48:56 AM 35.3636 -83.9242 North 396 456 36,000  Level Atlanta Center
Thu 09:49:56 AM 35.4783 -83.9189 North 401 461 36,000 -450 Level Atlanta Center
Thu 09:50:56 AM 35.5931 -83.9111 North 406 467 35,100 -500 Descending Atlanta Center
Thu 09:51:56 AM 35.6994 -83.9083 North 411 473 35,000 -50 Descending Atlanta Center
Thu 09:52:56 AM 35.8161 -83.9006 North 411 473 35,000  Level Atlanta Center
Thu 09:53:56 AM 35.9331 -83.8900 North 416 479 35,000 -200 Level Atlanta Center
Thu 09:54:56 AM 36.0478 -83.8719 North 416 479 34,600 -500 Descending Atlanta Center
Thu 09:55:56 AM 36.1625 -83.8511 North 421 484 34,000 -203 Descending Atlanta Center
Thu 09:57:53 AM 36.4008 -83.8125 North 435 501 34,000  Level Indianapolis Center
Thu 09:58:53 AM 36.4950 -83.7947 North 429 494 34,000  Level Indianapolis Center
Thu 09:59:53 AM 36.6200 -83.7744 North 417 480 34,000  Level Indianapolis Center
Thu 10:00:53 AM 36.7347 -83.7539 North 417 480 34,000  Level Indianapolis Center
Thu 10:01:53 AM 36.8539 -83.7336 North 417 480 34,000  Level Indianapolis Center
Thu 10:02:53 AM 36.9789 -83.7131 North 417 480 34,000  Level Indianapolis Center
Thu 10:03:53 AM 37.0978 -83.6925 North 423 487 34,000  Level Indianapolis Center
Thu 10:04:53 AM 37.2147 -83.6717 North 423 487 34,000 -1,200 Level Indianapolis Center
Thu 10:05:53 AM 37.3336 -83.6511 North 423 487 31,600 -2,950 Descending Indianapolis Center
Thu 10:06:53 AM 37.4506 -83.6275 North 423 487 28,100 -3,300 Descending Indianapolis Center
Thu 10:07:53 AM 37.5714 -83.6042 354° North 430 495 25,000 -2,200 Descending Indianapolis Center
Thu 10:08:53 AM 37.6842 -83.6200 330° Northwest 411 473 23,700 -1,150 Descending Indianapolis Center
Thu 10:09:53 AM 37.7717 -83.6831 348° North 375 432 22,700 -650 Descending Indianapolis Center
Thu 10:10:53 AM 37.8592 -83.7069 55° Northeast 340 391 22,400 -500 Descending Indianapolis Center
Thu 10:11:53 AM 37.9136 -83.6097 122° Southeast 298 343 21,700 -750 Descending Indianapolis Center
Thu 10:12:53 AM 37.8656 -83.5122 152° Southeast 357 411 20,900 -850 Descending Indianapolis Center
Thu 10:13:53 AM 37.7864 -83.4597 150° Southeast 347 399 20,000 -446 Descending Indianapolis Center
Thu 10:14:54 AM 37.7111 -83.4047 193° South 322 371 20,000  Level Indianapolis Center
Thu 10:15:53 AM 37.6297 -83.4286 252° West 290 334 20,000  Level Indianapolis Center
Thu 10:16:53 AM 37.6050 -83.5231 309° West 274 315 20,000  Level Indianapolis Center
Thu 10:17:53 AM 37.6528 -83.5989 331° Northwest 282 325 20,000  Level Indianapolis Center
Thu 10:18:53 AM 37.7236 -83.6489 330° Northwest 293 337 20,000  Level Indianapolis Center
Thu 10:19:53 AM 37.7925 -83.6989 15° North 293 337 20,000  Level Indianapolis Center
Thu 10:20:53 AM 37.8675 -83.6728 94° East 269 310 20,000  Level Indianapolis Center
Thu 10:21:53 AM 37.8614 -83.5728 146° Southeast 308 354 20,000  Level Indianapolis Center
Thu 10:22:53 AM 37.7989 -83.5203 150° Southeast 302 348 20,000  Level Indianapolis Center
Thu 10:23:53 AM 37.7194 -83.4625 177° South 322 371 20,000  Level Indianapolis Center
Thu 10:24:53 AM 37.6403 -83.4575 253° West 308 354 20,000  Level Indianapolis Center
Thu 10:25:53 AM 37.6175 -83.5492 319° Northwest 282 325 20,000  Level Indianapolis Center
Thu 10:26:53 AM 37.6778 -83.6147 330° Northwest 267 307 20,000  Level Indianapolis Center
Thu 10:27:53 AM 37.7508 -83.6672 336° Northwest 295 339 20,000  Level Indianapolis Center
Thu 10:28:53 AM 37.8217 -83.7069 43° Northeast 295 339 20,000  Level Indianapolis Center
Thu 10:29:53 AM 37.8803 -83.6386 122° Southeast 289 333 20,000  Level Indianapolis Center
Thu 10:30:53 AM 37.8364 -83.5492 149° Southeast 325 374 20,000  Level Indianapolis Center
Thu 10:31:53 AM 37.7592 -83.4914 154° Southeast 336 387 20,000  Level Indianapolis Center
Thu 10:32:53 AM 37.6819 -83.4442 215° Southwest 321 369 20,000  Level Indianapolis Center
Thu 10:33:53 AM 37.6194 -83.4994 290° West 268 308 20,000  Level Indianapolis Center
Thu 10:34:53 AM 37.6444 -83.5858 329° Northwest 263 303 20,000  Level Indianapolis Center
Thu 10:35:53 AM 37.7133 -83.6383 331° Northwest 296 341 20,000  Level Indianapolis Center
Thu 10:36:53 AM 37.7842 -83.6883 North 302 348 20,000  Level Indianapolis Center
Thu 10:37:53 AM 37.8572 -83.6858 81° East 266 306 20,000  Level Indianapolis Center
Thu 10:38:53 AM 37.8697 -83.5833 155° Southeast 284 327 20,000  Level Indianapolis Center
Thu 10:39:53 AM 37.7925 -83.5386 165° South 282 325 20,000 -550 Level Indianapolis Center
Thu 10:40:53 AM 37.7028 -83.5072 219° Southwest 354 407 18,900 -1,300 Descending Indianapolis Center
Thu 10:41:53 AM 37.6444 -83.5675 293° West 260 299 17,400 -1,650 Descending Indianapolis Center
Thu 10:42:53 AM 37.6778 -83.6672 294° West 287 330 15,600 -1,800 Descending Indianapolis Center
Thu 10:43:53 AM 37.7089 -83.7567 297° West 296 341 13,800 -1,700 Descending Indianapolis Center
Thu 10:44:53 AM 37.7442 -83.8458 295° West 288 331 12,200 -1,650 Descending Indianapolis Center
Thu 10:45:53 AM 37.7753 -83.9300 299° West 283 326 10,500 -1,650 Descending Indianapolis Center
Thu 10:46:53 AM 37.8106 -84.0119 308° West 274 315 8,900 -1,600 Descending Indianapolis Center
Thu 10:47:53 AM 37.8561 -84.0858 308° West 267 307 7,300 -1,400 Descending Indianapolis Center
Thu 10:48:53 AM 37.8994 -84.1572 307° West 262 302 6,100 -1,450 Descending Indianapolis Center
Thu 10:49:53 AM 37.9408 -84.2258 310° West 262 302 4,400 -1,050 Descending Indianapolis Center
Thu 10:50:53 AM 37.9864 -84.2947 308° West 254 292 4,000 -200 Descending Indianapolis Center
Thu 10:51:53 AM 38.0278 -84.3611 308° West 254 292 4,000 -400 Level Indianapolis Center
Thu 10:52:53 AM 38.0689 -84.4275 287° West 254 292 3,200 -800 Descending Indianapolis Center
Thu 10:53:53 AM 38.0850 -84.4936 15° North 222 255 2,400 -800 Descending Indianapolis Center
Thu 11:01:18 AM 38.6389 -84.3081 328° Northwest  Level FlightAware Approximate
Thu 11:02:18 AM 38.7171 -84.3708 328° Northwest  Level FlightAware Approximate
Thu 11:03:18 AM 38.7953 -84.4337 328° Northwest  Level FlightAware Approximate
Thu 11:04:18 AM 38.8735 -84.4967 328° Northwest  Level FlightAware Approximate
Thu 11:05:18 AM 38.9516 -84.5598 328° Northwest  Level FlightAware Approximate
Thu 11:06:18 AM 39.0297 -84.6231 328° Northwest  Level FlightAware Approximate
Thu 11:07:18 AM 39.1077 -84.6865 168° South  Level FlightAware Approximate
Thu 11:08:18 AM 39.0333 -84.6667 357° North  Level FlightAware Approximate
Thu 11:09:18 AM 39.1255 -84.6735 177° South  Level Estimated
Thu 11:10:18 AM 39.0333 -84.6667 357° North  Level FlightAware Approximate
Thu 11:11:18 AM 39.1255 -84.6735 177° South  Level Estimated
Thu 11:12:18 AM 39.0333 -84.6667 357° North  Level FlightAware Approximate
Thu 11:13:18 AM 39.1255 -84.6735 357° North  Level Estimated

Login

Don't have an account? Register now (free) for customized features, flight alerts, and more!